createdAt,value
2023-03-04T00:02:11.190Z,97230.56
2023-03-04T00:04:37.949Z,97235.88
2023-03-04T00:07:05.765Z,97229.56
2023-03-04T00:09:32.481Z,97231.94
2023-03-04T00:11:59.126Z,97233.31
2023-03-04T00:14:25.784Z,97229.63
2023-03-04T00:16:52.506Z,97230.47
2023-03-04T00:19:19.394Z,97226.97
2023-03-04T00:21:45.994Z,97228.34
2023-03-04T00:24:12.655Z,97225.97
2023-03-04T00:26:39.360Z,97228.97
2023-03-04T00:29:06.021Z,97231.44
2023-03-04T00:31:32.807Z,97239.28
2023-03-04T00:33:59.992Z,97233.97
2023-03-04T00:36:26.630Z,97238.25
2023-03-04T00:38:53.275Z,97234.25
2023-03-04T00:41:20.044Z,97230.84
2023-03-04T00:43:46.711Z,97236.16
2023-03-04T00:46:13.420Z,97239.84
2023-03-04T00:48:40.114Z,97243.53
2023-03-04T00:51:06.776Z,97245.16
2023-03-04T00:53:33.450Z,97235.53
2023-03-04T00:56:00.522Z,97240.50
2023-03-04T00:58:27.181Z,97238.19
2023-03-04T01:00:53.910Z,97236.16
2023-03-04T01:03:20.658Z,97241.69
2023-03-04T01:05:47.297Z,97240.22
2023-03-04T01:08:14.038Z,97239.38
2023-03-04T01:10:40.776Z,97232.56
2023-03-04T01:13:07.453Z,97231.44
2023-03-04T01:15:34.105Z,97233.81
2023-03-04T01:18:00.789Z,97231.00
2023-03-04T01:20:27.625Z,97226.13
2023-03-04T01:22:54.265Z,97235.50
2023-03-04T01:25:20.887Z,97231.34
2023-03-04T01:27:47.531Z,97226.84
2023-03-04T01:30:14.230Z,97224.56
2023-03-04T01:32:41.002Z,97226.22
2023-03-04T01:35:07.962Z,97223.91
2023-03-04T01:37:34.661Z,97225.84
2023-03-04T01:40:01.634Z,97223.38
2023-03-04T01:42:29.843Z,97220.16
2023-03-04T01:44:56.497Z,97222.47
2023-03-04T01:47:23.525Z,97218.41
2023-03-04T01:49:53.426Z,97216.59
2023-03-04T01:52:20.093Z,97210.25
2023-03-04T01:54:46.723Z,97213.28
2023-03-04T01:57:21.726Z,97209.78
2023-03-04T01:59:48.424Z,97211.31
2023-03-04T02:02:15.074Z,97210.03
2023-03-04T02:04:41.876Z,97207.94
2023-03-04T02:07:08.686Z,97211.41
2023-03-04T02:09:35.438Z,97209.75
2023-03-04T02:12:02.255Z,97207.09
2023-03-04T02:14:28.936Z,97202.69
2023-03-04T02:16:55.604Z,97192.50
2023-03-04T02:19:51.273Z,97202.63
2023-03-04T02:22:17.917Z,97194.63
2023-03-04T02:25:07.228Z,97194.06
2023-03-04T02:27:34.016Z,97192.34
2023-03-04T02:30:00.715Z,97188.16
2023-03-04T02:32:27.629Z,97185.66
2023-03-04T02:34:54.288Z,97181.16
2023-03-04T02:37:21.087Z,97188.44
2023-03-04T02:39:48.152Z,97188.69
2023-03-04T02:42:15.013Z,97191.34
2023-03-04T02:44:43.046Z,97186.13
2023-03-04T02:47:10.493Z,97185.94
2023-03-04T02:49:38.121Z,97181.09
2023-03-04T02:52:09.218Z,97183.34
2023-03-04T02:54:35.905Z,97179.50
2023-03-04T02:57:03.853Z,97178.13
2023-03-04T02:59:30.636Z,97184.38
2023-03-04T03:01:57.432Z,97179.84
2023-03-04T03:04:24.341Z,97184.38
2023-03-04T03:06:51.065Z,97183.34
2023-03-04T03:09:17.889Z,97177.00
2023-03-04T03:11:44.570Z,97176.44
2023-03-04T03:14:11.200Z,97178.28
2023-03-04T03:16:37.889Z,97177.91
2023-03-04T03:19:04.676Z,97180.38
2023-03-04T03:21:31.609Z,97170.81
2023-03-04T03:23:58.248Z,97166.13
2023-03-04T03:26:24.874Z,97167.22
2023-03-04T03:28:51.533Z,97165.19
2023-03-04T03:31:18.312Z,97165.63
2023-03-04T03:33:45.125Z,97170.16
2023-03-04T03:36:11.940Z,97168.28
2023-03-04T03:38:38.664Z,97168.75
2023-03-04T03:41:05.376Z,97163.41
2023-03-04T03:43:32.075Z,97166.72
2023-03-04T03:45:58.750Z,97161.19
2023-03-04T03:48:25.397Z,97169.47
2023-03-04T03:50:52.473Z,97177.88
2023-03-04T03:53:19.087Z,97176.66
2023-03-04T03:55:45.814Z,97170.50
2023-03-04T03:58:12.522Z,97168.81
2023-03-04T04:00:39.157Z,97177.47
2023-03-04T04:03:05.902Z,97171.75
2023-03-04T04:05:32.699Z,97173.59
2023-03-04T04:07:59.306Z,97174.44
2023-03-04T04:10:25.917Z,97173.44
2023-03-04T04:12:52.571Z,97172.75
2023-03-04T04:15:19.305Z,97182.91
2023-03-04T04:17:45.946Z,97179.66
2023-03-04T04:20:12.679Z,97177.25
2023-03-04T04:22:39.397Z,97174.75
2023-03-04T04:25:06.645Z,97175.38
2023-03-04T04:27:33.278Z,97174.59
2023-03-04T04:29:59.890Z,97185.25
2023-03-04T04:32:26.614Z,97176.84
2023-03-04T04:34:53.417Z,97189.25
2023-03-04T04:37:20.072Z,97182.91
2023-03-04T04:39:46.871Z,97189.84
2023-03-04T04:42:13.522Z,97195.06
2023-03-04T04:44:40.499Z,97190.09
2023-03-04T04:47:07.309Z,97190.97
2023-03-04T04:49:34.072Z,97186.47
2023-03-04T04:52:00.702Z,97190.97
2023-03-04T04:54:27.344Z,97193.03
2023-03-04T04:56:54.030Z,97190.94
2023-03-04T04:59:20.700Z,97194.44
2023-03-04T05:01:47.422Z,97193.19
2023-03-04T05:04:14.237Z,97192.81
2023-03-04T05:06:40.868Z,97196.53
2023-03-04T05:09:07.590Z,97192.81
2023-03-04T05:11:34.432Z,97191.81
2023-03-04T05:14:01.157Z,97197.22
2023-03-04T05:16:27.784Z,97194.91
2023-03-04T05:18:54.471Z,97188.94
2023-03-04T05:21:21.176Z,97184.06
2023-03-04T05:23:47.803Z,97194.34
2023-03-04T05:26:15.986Z,97192.06
2023-03-04T05:28:42.667Z,97189.41
2023-03-04T05:31:09.345Z,97187.47
2023-03-04T05:33:36.095Z,97190.16
2023-03-04T05:36:03.940Z,97194.03
2023-03-04T05:38:30.552Z,97194.59
2023-03-04T05:40:58.727Z,97185.97
2023-03-04T05:43:26.408Z,97193.69
2023-03-04T05:45:53.376Z,97193.91
2023-03-04T05:48:20.084Z,97198.78
2023-03-04T05:50:46.739Z,97198.97
2023-03-04T05:53:13.427Z,97200.63
2023-03-04T05:55:40.554Z,97197.31
2023-03-04T05:58:07.202Z,97194.66
2023-03-04T06:00:33.944Z,97204.69
2023-03-04T06:03:00.709Z,97204.25
2023-03-04T06:05:27.423Z,97207.09
2023-03-04T06:07:54.092Z,97203.41
2023-03-04T06:10:20.808Z,97209.59
2023-03-04T06:12:47.500Z,97208.94
2023-03-04T06:15:14.310Z,97214.47
2023-03-04T06:17:42.253Z,97221.63
2023-03-04T06:20:10.205Z,97212.34
2023-03-04T06:22:36.864Z,97214.47
2023-03-04T06:25:03.764Z,97214.84
2023-03-04T06:27:30.481Z,97214.66
2023-03-04T06:29:57.340Z,97216.13
2023-03-04T06:32:24.067Z,97217.41
2023-03-04T06:34:50.812Z,97218.88
2023-03-04T06:37:17.485Z,97216.91
2023-03-04T06:39:44.551Z,97220.19
2023-03-04T06:42:11.421Z,97221.66
2023-03-04T06:44:38.219Z,97217.22
2023-03-04T06:47:04.950Z,97218.91
2023-03-04T06:49:31.567Z,97214.81
2023-03-04T06:51:58.260Z,97219.78
2023-03-04T06:54:26.144Z,97227.22
2023-03-04T06:56:52.835Z,97217.44
2023-03-04T06:59:19.560Z,97223.63
2023-03-04T07:01:46.338Z,97226.97
2023-03-04T07:04:13.893Z,97233.19
2023-03-04T07:06:40.716Z,97231.19
2023-03-04T07:09:07.346Z,97236.59
2023-03-04T07:11:34.003Z,97236.63
2023-03-04T07:14:00.869Z,97240.66
2023-03-04T07:16:27.712Z,97240.25
2023-03-04T07:18:54.425Z,97236.78
2023-03-04T07:21:21.172Z,97236.84
2023-03-04T07:23:48.020Z,97242.19
2023-03-04T07:26:14.766Z,97243.88
2023-03-04T07:28:41.530Z,97242.88
2023-03-04T07:31:21.488Z,97239.22
2023-03-04T07:33:48.309Z,97238.06
2023-03-04T07:36:15.085Z,97244.50
2023-03-04T07:38:48.212Z,97244.16
2023-03-04T07:41:15.315Z,97242.06
2023-03-04T07:43:42.052Z,97246.63
2023-03-04T07:46:08.904Z,97245.63
2023-03-04T07:48:35.678Z,97257.19
2023-03-04T07:51:06.992Z,97251.44
2023-03-04T07:53:33.743Z,97248.59
2023-03-04T07:56:02.544Z,97253.91
2023-03-04T07:58:29.404Z,97256.22
2023-03-04T08:00:56.110Z,97250.34
2023-03-04T08:03:22.820Z,97259.88
2023-03-04T08:05:49.445Z,97258.72
2023-03-04T08:08:17.380Z,97263.44
2023-03-04T08:10:44.129Z,97264.00
2023-03-04T08:13:10.738Z,97270.78
2023-03-04T08:15:40.433Z,97273.72
2023-03-04T08:18:10.108Z,97269.63
2023-03-04T08:20:36.954Z,97263.72
2023-03-04T08:23:03.610Z,97268.63
2023-03-04T08:25:30.553Z,97267.63
2023-03-04T08:27:57.248Z,97268.28
2023-03-04T08:30:24.052Z,97270.44
2023-03-04T08:32:50.832Z,97269.38
2023-03-04T08:35:17.549Z,97270.84
2023-03-04T08:37:44.265Z,97271.53
2023-03-04T08:40:11.894Z,97280.09
2023-03-04T08:42:38.511Z,97271.44
2023-03-04T08:45:05.651Z,97273.75
2023-03-04T08:47:32.269Z,97279.84
2023-03-04T08:49:58.882Z,97279.72
2023-03-04T08:52:25.727Z,97276.22
2023-03-04T08:54:52.334Z,97277.41
2023-03-04T08:57:18.995Z,97272.81
2023-03-04T08:59:45.678Z,97272.78
2023-03-04T09:02:12.337Z,97278.41
2023-03-04T09:04:38.941Z,97279.13
2023-03-04T09:07:05.717Z,97282.38
2023-03-04T09:09:32.368Z,97274.94
2023-03-04T09:11:59.028Z,97289.53
2023-03-04T09:14:25.834Z,97288.88
2023-03-04T09:16:52.524Z,97288.22
2023-03-04T09:19:19.221Z,97284.41
2023-03-04T09:21:45.849Z,97279.75
2023-03-04T09:24:12.607Z,97290.69
2023-03-04T09:26:39.473Z,97276.28
2023-03-04T09:29:06.102Z,97279.22
2023-03-04T09:31:32.825Z,97283.38
2023-03-04T09:33:59.699Z,97286.75
2023-03-04T09:36:26.394Z,97286.16
2023-03-04T09:38:53.053Z,97282.25
2023-03-04T09:41:25.462Z,97282.25
2023-03-04T09:43:52.606Z,97277.94
2023-03-04T09:46:35.645Z,97276.91
2023-03-04T09:49:02.309Z,97279.41
2023-03-04T09:51:48.928Z,97273.41
2023-03-04T09:54:21.695Z,97271.59
2023-03-04T09:56:48.371Z,97266.66
2023-03-04T09:59:25.332Z,97265.22
2023-03-04T10:01:55.969Z,97270.59
2023-03-04T10:04:47.228Z,97271.38
2023-03-04T10:07:17.588Z,97269.94
2023-03-04T10:09:54.616Z,97264.19
2023-03-04T10:12:22.993Z,97268.09
2023-03-04T10:14:52.359Z,97257.97
2023-03-04T10:17:22.670Z,97258.34
2023-03-04T10:20:01.598Z,97263.09
2023-03-04T10:22:32.787Z,97259.41
2023-03-04T10:25:01.655Z,97255.06
2023-03-04T10:27:28.320Z,97248.88
2023-03-04T10:29:58.258Z,97245.81
2023-03-04T10:32:24.940Z,97234.88
2023-03-04T10:34:51.690Z,97230.94
2023-03-04T10:37:18.322Z,97232.81
2023-03-04T10:39:46.130Z,97233.19
2023-03-04T10:42:15.503Z,97232.19
2023-03-04T10:44:52.453Z,97234.66
2023-03-04T10:47:19.133Z,97224.75
2023-03-04T10:49:56.251Z,97223.94
2023-03-04T10:52:32.676Z,97224.53
2023-03-04T10:55:06.530Z,97224.94
2023-03-04T10:57:40.954Z,97220.59
2023-03-04T11:00:28.462Z,97212.34
2023-03-04T11:03:20.228Z,97216.66
2023-03-04T11:05:46.923Z,97208.81
2023-03-04T11:08:23.169Z,97205.50
2023-03-04T11:10:50.323Z,97203.78
2023-03-04T11:13:19.055Z,97206.91
2023-03-04T11:15:48.565Z,97204.59
2023-03-04T11:18:18.026Z,97198.78
2023-03-04T11:20:46.906Z,97192.63
2023-03-04T11:23:23.154Z,97194.69
2023-03-04T11:25:57.870Z,97200.84
2023-03-04T11:28:26.707Z,97194.47
2023-03-04T11:31:16.655Z,97189.00
2023-03-04T11:34:18.434Z,97196.19
2023-03-04T11:36:53.238Z,97189.63
2023-03-04T11:39:23.857Z,97188.09
2023-03-04T11:41:57.423Z,97176.97
2023-03-04T11:44:26.632Z,97174.97
2023-03-04T11:47:18.159Z,97176.03
2023-03-04T11:49:57.027Z,97164.00
2023-03-04T11:52:36.741Z,97169.78
2023-03-04T11:55:09.405Z,97167.88
2023-03-04T11:57:46.141Z,97164.97
2023-03-04T12:00:19.068Z,97156.25
2023-03-04T12:03:04.382Z,97149.59
2023-03-04T12:05:37.742Z,97152.91
2023-03-04T12:08:29.038Z,97148.53
2023-03-04T12:11:01.784Z,97142.81
2023-03-04T12:13:51.195Z,97140.25
2023-03-04T12:16:36.474Z,97132.13
2023-03-04T12:19:38.342Z,97132.91
2023-03-04T12:22:24.022Z,97119.56
2023-03-04T12:25:12.640Z,97121.66
2023-03-04T12:27:42.171Z,97111.66
2023-03-04T12:30:45.997Z,97108.97
2023-03-04T12:33:34.159Z,97103.34
2023-03-04T12:36:19.469Z,97090.66
2023-03-04T12:38:56.882Z,97088.19
2023-03-04T12:41:23.401Z,97090.66
2023-03-04T12:44:18.291Z,97085.72
2023-03-04T12:47:03.730Z,97084.25
2023-03-04T12:49:56.479Z,97078.09
2023-03-04T12:52:48.932Z,97073.81
2023-03-04T12:55:17.340Z,97060.97
2023-03-04T12:57:44.507Z,97069.72
2023-03-04T13:00:28.144Z,97060.59
2023-03-04T13:03:09.081Z,97050.94
2023-03-04T13:05:47.618Z,97047.28
2023-03-04T13:08:32.273Z,97046.25
2023-03-04T13:11:28.110Z,97040.22
2023-03-04T13:14:15.921Z,97043.94
2023-03-04T13:16:46.273Z,97037.53
2023-03-04T13:19:44.056Z,97035.13
2023-03-04T13:22:32.390Z,97030.34
2023-03-04T13:25:00.089Z,97023.25
2023-03-04T13:27:45.092Z,97022.69
2023-03-04T13:30:33.595Z,97020.22
2023-03-04T13:33:09.424Z,97020.47
2023-03-04T13:35:48.111Z,97018.84
2023-03-04T13:38:24.844Z,97025.22
2023-03-04T13:41:15.214Z,97020.19
2023-03-04T13:43:57.805Z,97007.19
2023-03-04T13:46:24.510Z,97012.38
2023-03-04T13:48:51.267Z,97013.25
2023-03-04T13:51:36.680Z,97013.41
2023-03-04T13:54:07.647Z,97023.03
2023-03-04T13:56:47.245Z,97019.75
2023-03-04T13:59:41.513Z,97010.69
2023-03-04T14:02:12.561Z,97009.28
2023-03-04T14:04:40.560Z,97001.53
2023-03-04T14:07:32.784Z,97003.16
2023-03-04T14:10:12.663Z,97001.66
2023-03-04T14:12:48.113Z,97007.50
2023-03-04T14:15:14.676Z,96996.00
2023-03-04T14:17:45.710Z,96995.53
2023-03-04T14:20:28.679Z,96995.63
2023-03-04T14:22:55.561Z,96997.16
2023-03-04T14:25:26.124Z,97001.38
2023-03-04T14:28:08.662Z,96995.53
2023-03-04T14:30:42.898Z,96988.19
2023-03-04T14:33:15.643Z,96990.00
2023-03-04T14:35:46.706Z,96983.72
2023-03-04T14:38:25.337Z,96979.91
2023-03-04T14:40:53.756Z,96981.78
2023-03-04T14:43:21.551Z,96975.78
2023-03-04T14:45:53.606Z,96974.31
2023-03-04T14:48:32.395Z,96969.53
2023-03-04T14:50:59.520Z,96971.41
2023-03-04T14:53:30.399Z,96959.94
2023-03-04T14:55:57.772Z,96962.50
2023-03-04T14:58:37.998Z,96954.88
2023-03-04T15:01:16.130Z,96958.84
2023-03-04T15:03:44.512Z,96960.41
2023-03-04T15:06:19.533Z,96954.59
2023-03-04T15:08:46.590Z,96947.06
2023-03-04T15:11:25.432Z,96943.97
2023-03-04T15:13:54.150Z,96952.44
2023-03-04T15:16:22.410Z,96943.69
2023-03-04T15:19:02.006Z,96944.69
2023-03-04T15:21:41.026Z,96938.88
2023-03-04T15:24:08.986Z,96937.03
2023-03-04T15:26:38.933Z,96942.47
2023-03-04T15:29:16.021Z,96938.81
2023-03-04T15:31:42.760Z,96936.88
2023-03-04T15:34:12.677Z,96941.44
2023-03-04T15:36:39.327Z,96935.16
2023-03-04T15:39:05.963Z,96931.88
2023-03-04T15:41:32.710Z,96938.09
2023-03-04T15:43:59.432Z,96934.19
2023-03-04T15:46:26.138Z,96937.03
2023-03-04T15:48:52.816Z,96937.22
2023-03-04T15:51:22.523Z,96927.22
2023-03-04T15:53:53.530Z,96933.91
2023-03-04T15:56:24.417Z,96930.66
2023-03-04T15:58:58.045Z,96929.72
2023-03-04T16:01:24.789Z,96923.50
2023-03-04T16:03:53.509Z,96924.41
2023-03-04T16:06:20.657Z,96922.16
2023-03-04T16:08:47.393Z,96919.09
2023-03-04T16:11:18.850Z,96930.06
2023-03-04T16:13:45.612Z,96927.16
2023-03-04T16:16:12.572Z,96933.44
2023-03-04T16:18:39.530Z,96933.75
2023-03-04T16:21:06.630Z,96922.53
2023-03-04T16:23:38.378Z,96919.19
2023-03-04T16:26:06.210Z,96923.44
2023-03-04T16:28:32.931Z,96925.38
2023-03-04T16:30:59.654Z,96925.59
2023-03-04T16:33:26.520Z,96925.69
2023-03-04T16:35:53.504Z,96924.41
2023-03-04T16:38:30.563Z,96925.84
2023-03-04T16:40:58.565Z,96927.69
2023-03-04T16:43:25.270Z,96928.88
2023-03-04T16:45:51.942Z,96930.59
2023-03-04T16:48:18.595Z,96935.00
2023-03-04T16:50:45.276Z,96929.63
2023-03-04T16:53:26.817Z,96929.03
2023-03-04T16:55:53.647Z,96927.53
2023-03-04T16:58:20.347Z,96936.63
2023-03-04T17:00:47.096Z,96925.28
2023-03-04T17:03:13.765Z,96929.41
2023-03-04T17:05:40.466Z,96935.00
2023-03-04T17:08:07.136Z,96922.16
2023-03-04T17:10:33.792Z,96932.16
2023-03-04T17:13:00.578Z,96933.44
2023-03-04T17:15:27.219Z,96940.06
2023-03-04T17:17:53.866Z,96935.88
2023-03-04T17:20:20.608Z,96940.50
2023-03-04T17:22:47.329Z,96938.94
2023-03-04T17:25:14.165Z,96946.03
2023-03-04T17:27:41.431Z,96939.22
2023-03-04T17:30:11.379Z,96942.50
2023-03-04T17:32:38.497Z,96946.09
2023-03-04T17:35:06.746Z,96950.19
2023-03-04T17:37:33.449Z,96951.47
2023-03-04T17:40:00.219Z,96951.06
2023-03-04T17:42:26.940Z,96948.00
2023-03-04T17:44:53.633Z,96950.38
2023-03-04T17:47:20.280Z,96949.13
2023-03-04T17:49:46.965Z,96953.84
2023-03-04T17:52:13.593Z,96953.09
2023-03-04T17:54:40.261Z,96951.03
2023-03-04T17:57:06.953Z,96939.47
2023-03-04T17:59:33.578Z,96941.72
2023-03-04T18:02:00.343Z,96942.22
2023-03-04T18:04:26.969Z,96937.72
2023-03-04T18:06:53.638Z,96938.72
2023-03-04T18:09:20.325Z,96939.69
2023-03-04T18:11:46.975Z,96945.09
2023-03-04T18:14:13.854Z,96937.47
2023-03-04T18:16:40.598Z,96941.59
2023-03-04T18:19:07.515Z,96939.31
2023-03-04T18:21:34.212Z,96934.09
2023-03-04T18:24:00.839Z,96938.53
2023-03-04T18:26:27.502Z,96943.91
2023-03-04T18:28:54.997Z,96941.63
2023-03-04T18:31:22.875Z,96939.56
2023-03-04T18:33:49.627Z,96940.38
2023-03-04T18:36:16.332Z,96933.22
2023-03-04T18:38:43.002Z,96938.94
2023-03-04T18:41:12.405Z,96940.34
2023-03-04T18:43:39.118Z,96939.41
2023-03-04T18:46:26.039Z,96950.94
2023-03-04T18:48:53.477Z,96938.34
2023-03-04T18:51:20.444Z,96945.59
2023-03-04T18:53:47.139Z,96939.81
2023-03-04T18:56:15.706Z,96942.69
2023-03-04T18:58:43.416Z,96936.97
2023-03-04T19:01:10.144Z,96941.44
2023-03-04T19:03:36.846Z,96931.59
2023-03-04T19:06:04.052Z,96934.00
2023-03-04T19:08:30.727Z,96941.72
2023-03-04T19:10:57.489Z,96930.34
2023-03-04T19:13:24.172Z,96942.09
2023-03-04T19:15:51.347Z,96943.34
2023-03-04T19:18:18.053Z,96939.25
2023-03-04T19:20:44.750Z,96945.47
2023-03-04T19:23:11.470Z,96946.47
2023-03-04T19:25:38.094Z,96940.94
2023-03-04T19:28:05.117Z,96948.84
2023-03-04T19:30:32.071Z,96947.34
2023-03-04T19:32:58.753Z,96951.03
2023-03-04T19:35:25.562Z,96950.66
2023-03-04T19:37:52.841Z,96952.28
2023-03-04T19:40:19.745Z,96955.84
2023-03-04T19:42:46.531Z,96953.59
2023-03-04T19:45:13.224Z,96950.72
2023-03-04T19:47:39.997Z,96950.72
2023-03-04T19:50:08.859Z,96947.47
2023-03-04T19:52:35.578Z,96947.50
2023-03-04T19:55:02.506Z,96944.41
2023-03-04T19:57:29.421Z,96940.88
2023-03-04T19:59:56.113Z,96943.75
2023-03-04T20:02:22.807Z,96949.13
2023-03-04T20:04:49.532Z,96944.59
2023-03-04T20:07:16.210Z,96944.59
2023-03-04T20:09:42.851Z,96948.69
2023-03-04T20:12:09.536Z,96954.25
2023-03-04T20:14:36.200Z,96947.91
2023-03-04T20:17:03.957Z,96957.56
2023-03-04T20:19:30.629Z,96954.50
2023-03-04T20:21:57.324Z,96953.25
2023-03-04T20:24:24.600Z,96955.31
2023-03-04T20:26:51.280Z,96963.56
2023-03-04T20:29:18.077Z,96966.00
2023-03-04T20:31:44.764Z,96961.50
2023-03-04T20:34:11.579Z,96958.63
2023-03-04T20:36:38.255Z,96955.72
2023-03-04T20:39:18.140Z,96959.63
2023-03-04T20:41:52.367Z,96954.50
2023-03-04T20:44:19.132Z,96943.38
2023-03-04T20:46:45.813Z,96946.66
2023-03-04T20:49:17.233Z,96948.91
2023-03-04T20:51:43.870Z,96944.59
2023-03-04T20:54:10.554Z,96942.97
2023-03-04T20:56:37.588Z,96952.41
2023-03-04T20:59:04.909Z,96939.66
2023-03-04T21:01:31.664Z,96945.00
2023-03-04T21:03:59.045Z,96944.59
2023-03-04T21:06:25.738Z,96941.50
2023-03-04T21:08:52.470Z,96946.25
2023-03-04T21:11:19.143Z,96946.88
2023-03-04T21:13:45.851Z,96954.28
2023-03-04T21:16:13.797Z,96938.84
2023-03-04T21:18:41.035Z,96943.56
2023-03-04T21:21:19.406Z,96949.97
2023-03-04T21:23:46.376Z,96937.59
2023-03-04T21:26:13.007Z,96943.56
2023-03-04T21:28:39.740Z,96942.13
2023-03-04T21:31:06.511Z,96939.25
2023-03-04T21:33:34.251Z,96939.47
2023-03-04T21:36:00.936Z,96934.31
2023-03-04T21:38:27.569Z,96937.00
2023-03-04T21:40:54.231Z,96928.94
2023-03-04T21:43:20.868Z,96935.53
2023-03-04T21:45:52.656Z,96940.69
2023-03-04T21:48:19.306Z,96947.06
2023-03-04T21:50:46.088Z,96948.31
2023-03-04T21:53:12.725Z,96946.84
2023-03-04T21:55:42.548Z,96936.38
2023-03-04T21:58:09.495Z,96948.91
2023-03-04T22:00:37.334Z,96935.13
2023-03-04T22:03:04.097Z,96946.66
2023-03-04T22:05:30.807Z,96949.94
2023-03-04T22:07:57.444Z,96938.84
2023-03-04T22:10:24.067Z,96944.81
2023-03-04T22:12:50.803Z,96958.59
2023-03-04T22:15:17.516Z,96952.41
2023-03-04T22:17:44.249Z,96949.28
2023-03-04T22:20:13.101Z,96947.66
2023-03-04T22:22:39.945Z,96945.00
2023-03-04T22:25:06.891Z,96941.31
2023-03-04T22:27:33.599Z,96953.41
2023-03-04T22:30:00.278Z,96957.75
2023-03-04T22:32:27.072Z,96938.38
2023-03-04T22:34:53.773Z,96956.47
2023-03-04T22:37:20.517Z,96946.78
2023-03-04T22:39:47.199Z,96950.06
2023-03-04T22:42:13.814Z,96955.84
2023-03-04T22:44:40.435Z,96950.91
2023-03-04T22:47:07.127Z,96958.50
2023-03-04T22:49:33.769Z,96952.28
2023-03-04T22:52:00.405Z,96951.50
2023-03-04T22:54:27.206Z,96956.41
2023-03-04T22:56:53.871Z,96947.53
2023-03-04T22:59:20.570Z,96947.38
2023-03-04T23:01:47.236Z,96950.22
2023-03-04T23:04:13.900Z,96955.56
2023-03-04T23:06:40.743Z,96955.19
2023-03-04T23:09:07.561Z,96955.19
2023-03-04T23:11:35.739Z,96956.25
2023-03-04T23:14:02.909Z,96947.38
2023-03-04T23:16:29.743Z,96958.09
2023-03-04T23:18:59.171Z,96955.19
2023-03-04T23:21:26.248Z,96962.19
2023-03-04T23:23:53.413Z,96952.09
2023-03-04T23:26:20.831Z,96959.28
2023-03-04T23:28:47.544Z,96955.06
2023-03-04T23:31:14.305Z,96955.31
2023-03-04T23:33:44.280Z,96954.69
2023-03-04T23:36:13.058Z,96957.41
2023-03-04T23:38:41.479Z,96951.44
2023-03-04T23:41:10.417Z,96949.72
2023-03-04T23:43:37.107Z,96951.22
2023-03-04T23:46:03.833Z,96949.59
2023-03-04T23:48:30.582Z,96950.16
2023-03-04T23:50:57.258Z,96950.16
2023-03-04T23:53:23.934Z,96951.38
2023-03-04T23:55:50.545Z,96945.59
2023-03-04T23:58:17.233Z,96944.13
